CheckWX is a tool to help pilots better visualize weather data.  It is not intended as a substitute for an official pre-flight weather briefing.

22:50:27 UTC

EGKK METAR
London Gatwick Airport
London, United Kingdom
Current

30 mins ago

EGKK 062220Z 25009KT CAVOK 08/06 Q1009
Observed
Dec-6 @ 22:20 UTC
Wind
  • 250° at 9 KTS
Visibility
10,000+ meters
Flight Rules
VFR
Cloud Levels
  • Clear skies
Temperature
C / 46°F
Dewpoint
C / 43°F
Humidity
87%
Altimeter
29.79" Hg
Pressure
1008.92 hPa
Previous

60 mins ago

EGKK 062150Z 24009KT 9999 FEW033 09/07 Q1008
Observed
Dec-6 @ 21:50 UTC
Wind
  • 240° at 9 KTS
Visibility
10,000+ meters
Flight Rules
VFR
Cloud Levels
  • Few at 3,300' AGL
Temperature
C / 48°F
Dewpoint
C / 45°F
Humidity
87%
Altimeter
29.76" Hg
Pressure
1007.92 hPa
Previous

2 hours ago

EGKK 062120Z 25010KT 9999 BKN036 09/07 Q1008
Observed
Dec-6 @ 21:20 UTC
Wind
  • 250° at 10 KTS
Visibility
10,000+ meters
Flight Rules
VFR
Cloud Levels
  • Broken at 3,600' AGL
Temperature
C / 48°F
Dewpoint
C / 45°F
Humidity
87%
Altimeter
29.76" Hg
Pressure
1007.92 hPa